sensor_id;sensor_type;location;lat;lon;timestamp;pressure;altitude;pressure_sealevel;temperature;humidity
52735;BME280;38631;47.572;10.704;2023-02-13T00:02:22;94175.06;;;-0.24;100.00
52735;BME280;38631;47.572;10.704;2023-02-13T00:04:47;94174.06;;;-0.16;100.00
52735;BME280;38631;47.572;10.704;2023-02-13T00:07:13;94170.81;;;-0.31;100.00
52735;BME280;38631;47.572;10.704;2023-02-13T00:09:39;94175.03;;;-0.30;100.00
52735;BME280;38631;47.572;10.704;2023-02-13T00:12:05;94175.00;;;-0.44;100.00
52735;BME280;38631;47.572;10.704;2023-02-13T00:14:37;94168.53;;;-0.61;100.00
52735;BME280;38631;47.572;10.704;2023-02-13T00:17:03;94171.28;;;-0.76;100.00
52735;BME280;38631;47.572;10.704;2023-02-13T00:19:29;94155.22;;;-0.79;100.00
52735;BME280;38631;47.572;10.704;2023-02-13T00:21:54;94159.03;;;-0.82;100.00
52735;BME280;38631;47.572;10.704;2023-02-13T00:24:20;94151.25;;;-1.17;100.00
52735;BME280;38631;47.572;10.704;2023-02-13T00:26:45;94157.59;;;-1.26;100.00
52735;BME280;38631;47.572;10.704;2023-02-13T00:29:11;94153.22;;;-1.19;100.00
52735;BME280;38631;47.572;10.704;2023-02-13T00:31:36;94150.31;;;-1.02;100.00
52735;BME280;38631;47.572;10.704;2023-02-13T00:34:02;94146.91;;;-0.96;100.00
52735;BME280;38631;47.572;10.704;2023-02-13T00:36:27;94141.34;;;-0.87;100.00
52735;BME280;38631;47.572;10.704;2023-02-13T00:38:53;94145.84;;;-0.67;100.00
52735;BME280;38631;47.572;10.704;2023-02-13T00:41:20;94137.97;;;-0.74;100.00
52735;BME280;38631;47.572;10.704;2023-02-13T00:43:46;94137.69;;;-0.99;100.00
52735;BME280;38631;47.572;10.704;2023-02-13T00:46:11;94132.72;;;-0.87;100.00
52735;BME280;38631;47.572;10.704;2023-02-13T00:48:37;94134.44;;;-0.59;100.00
52735;BME280;38631;47.572;10.704;2023-02-13T00:51:03;94138.22;;;-0.62;100.00
52735;BME280;38631;47.572;10.704;2023-02-13T00:53:29;94131.72;;;-0.93;100.00
52735;BME280;38631;47.572;10.704;2023-02-13T00:55:55;94134.75;;;-0.82;100.00
52735;BME280;38631;47.572;10.704;2023-02-13T00:58:20;94141.44;;;-0.67;100.00
52735;BME280;38631;47.572;10.704;2023-02-13T01:00:47;94134.63;;;-0.68;100.00
52735;BME280;38631;47.572;10.704;2023-02-13T01:03:14;94129.69;;;-0.91;100.00
52735;BME280;38631;47.572;10.704;2023-02-13T01:05:39;94139.63;;;-1.14;100.00
52735;BME280;38631;47.572;10.704;2023-02-13T01:08:05;94140.75;;;-1.23;100.00
52735;BME280;38631;47.572;10.704;2023-02-13T01:10:30;94142.28;;;-1.01;100.00
52735;BME280;38631;47.572;10.704;2023-02-13T01:12:55;94134.53;;;-0.88;100.00
52735;BME280;38631;47.572;10.704;2023-02-13T01:15:21;94139.41;;;-0.71;100.00
52735;BME280;38631;47.572;10.704;2023-02-13T01:17:46;94129.53;;;-0.82;100.00
52735;BME280;38631;47.572;10.704;2023-02-13T01:20:12;94137.94;;;-0.80;100.00
52735;BME280;38631;47.572;10.704;2023-02-13T01:22:38;94137.97;;;-0.74;100.00
52735;BME280;38631;47.572;10.704;2023-02-13T01:25:04;94137.09;;;-0.94;100.00
52735;BME280;38631;47.572;10.704;2023-02-13T01:27:31;94134.94;;;-0.84;100.00
52735;BME280;38631;47.572;10.704;2023-02-13T01:29:56;94146.16;;;-0.90;100.00
52735;BME280;38631;47.572;10.704;2023-02-13T01:32:22;94141.44;;;-1.08;100.00
52735;BME280;38631;47.572;10.704;2023-02-13T01:34:47;94146.41;;;-1.20;100.00
52735;BME280;38631;47.572;10.704;2023-02-13T01:37:13;94145.22;;;-1.17;100.00
52735;BME280;38631;47.572;10.704;2023-02-13T01:39:38;94148.72;;;-0.97;100.00
52735;BME280;38631;47.572;10.704;2023-02-13T01:42:04;94153.66;;;-1.43;100.00
52735;BME280;38631;47.572;10.704;2023-02-13T01:44:45;94145.34;;;-1.32;100.00
52735;BME280;38631;47.572;10.704;2023-02-13T01:47:10;94146.25;;;-1.12;100.00
52735;BME280;38631;47.572;10.704;2023-02-13T01:49:37;94144.47;;;-1.04;100.00
52735;BME280;38631;47.572;10.704;2023-02-13T01:52:03;94144.88;;;-1.07;100.00
52735;BME280;38631;47.572;10.704;2023-02-13T01:54:30;94140.28;;;-0.99;100.00
52735;BME280;38631;47.572;10.704;2023-02-13T01:57:16;94144.41;;;-1.53;100.00
52735;BME280;38631;47.572;10.704;2023-02-13T01:59:48;94144.81;;;-1.49;100.00
52735;BME280;38631;47.572;10.704;2023-02-13T02:02:16;94146.53;;;-1.28;100.00
52735;BME280;38631;47.572;10.704;2023-02-13T02:04:42;94152.78;;;-1.29;100.00
52735;BME280;38631;47.572;10.704;2023-02-13T02:07:13;94152.94;;;-1.65;100.00
52735;BME280;38631;47.572;10.704;2023-02-13T02:09:42;94152.09;;;-1.72;100.00
52735;BME280;38631;47.572;10.704;2023-02-13T02:12:17;94145.44;;;-1.47;100.00
52735;BME280;38631;47.572;10.704;2023-02-13T02:14:45;94151.63;;;-1.55;100.00
52735;BME280;38631;47.572;10.704;2023-02-13T02:17:11;94140.75;;;-1.58;100.00
52735;BME280;38631;47.572;10.704;2023-02-13T02:19:45;94152.31;;;-1.67;100.00
52735;BME280;38631;47.572;10.704;2023-02-13T02:25:34;94145.63;;;-1.14;100.00
52735;BME280;38631;47.572;10.704;2023-02-13T02:28:28;94155.34;;;-0.94;100.00
52735;BME280;38631;47.572;10.704;2023-02-13T02:37:02;94160.06;;;-1.18;100.00
52735;BME280;38631;47.572;10.704;2023-02-13T02:45:46;94160.34;;;-0.99;100.00
52735;BME280;38631;47.572;10.704;2023-02-13T02:48:34;94160.97;;;-0.91;100.00
52735;BME280;38631;47.572;10.704;2023-02-13T02:51:33;94161.31;;;-1.07;100.00
52735;BME280;38631;47.572;10.704;2023-02-13T02:54:14;94162.78;;;-0.98;100.00
52735;BME280;38631;47.572;10.704;2023-02-13T02:57:03;94167.91;;;-1.11;100.00
52735;BME280;38631;47.572;10.704;2023-02-13T02:59:31;94168.00;;;-1.33;100.00
52735;BME280;38631;47.572;10.704;2023-02-13T03:02:33;94169.94;;;-1.41;100.00
52735;BME280;38631;47.572;10.704;2023-02-13T03:05:24;94178.13;;;-1.44;100.00
52735;BME280;38631;47.572;10.704;2023-02-13T03:08:10;94174.97;;;-1.05;100.00
52735;BME280;38631;47.572;10.704;2023-02-13T03:10:37;94182.63;;;-1.32;100.00
52735;BME280;38631;47.572;10.704;2023-02-13T03:13:38;94186.31;;;-1.19;100.00
52735;BME280;38631;47.572;10.704;2023-02-13T03:16:05;94187.81;;;-1.32;100.00
52735;BME280;38631;47.572;10.704;2023-02-13T03:18:52;94194.88;;;-1.25;100.00
52735;BME280;38631;47.572;10.704;2023-02-13T03:21:51;94193.34;;;-1.13;100.00
52735;BME280;38631;47.572;10.704;2023-02-13T03:24:55;94203.16;;;-1.43;100.00
52735;BME280;38631;47.572;10.704;2023-02-13T03:27:33;94202.13;;;-1.49;100.00
52735;BME280;38631;47.572;10.704;2023-02-13T03:36:05;94216.56;;;-1.75;100.00
52735;BME280;38631;47.572;10.704;2023-02-13T03:39:03;94213.97;;;-1.46;100.00
52735;BME280;38631;47.572;10.704;2023-02-13T03:44:21;94206.16;;;-1.96;100.00
52735;BME280;38631;47.572;10.704;2023-02-13T03:46:49;94212.84;;;-2.08;100.00
52735;BME280;38631;47.572;10.704;2023-02-13T03:49:22;94216.44;;;-1.88;100.00
52735;BME280;38631;47.572;10.704;2023-02-13T03:52:15;94209.56;;;-1.96;100.00
52735;BME280;38631;47.572;10.704;2023-02-13T03:54:48;94209.06;;;-2.06;100.00
52735;BME280;38631;47.572;10.704;2023-02-13T03:57:37;94214.19;;;-1.69;100.00
52735;BME280;38631;47.572;10.704;2023-02-13T04:00:24;94211.78;;;-1.71;100.00
52735;BME280;38631;47.572;10.704;2023-02-13T04:03:12;94216.72;;;-1.55;100.00
52735;BME280;38631;47.572;10.704;2023-02-13T04:05:43;94217.19;;;-1.72;100.00
52735;BME280;38631;47.572;10.704;2023-02-13T04:08:09;94227.06;;;-1.61;100.00
52735;BME280;38631;47.572;10.704;2023-02-13T04:10:40;94223.84;;;-1.42;100.00
52735;BME280;38631;47.572;10.704;2023-02-13T04:13:17;94224.94;;;-1.29;100.00
52735;BME280;38631;47.572;10.704;2023-02-13T04:15:50;94224.88;;;-1.36;100.00
52735;BME280;38631;47.572;10.704;2023-02-13T04:18:29;94225.16;;;-1.53;100.00
52735;BME280;38631;47.572;10.704;2023-02-13T04:20:55;94224.00;;;-1.43;100.00
52735;BME280;38631;47.572;10.704;2023-02-13T04:23:20;94227.94;;;-1.26;100.00
52735;BME280;38631;47.572;10.704;2023-02-13T04:25:49;94224.44;;;-1.12;100.00
52735;BME280;38631;47.572;10.704;2023-02-13T04:28:16;94219.22;;;-1.12;100.00
52735;BME280;38631;47.572;10.704;2023-02-13T04:30:41;94226.34;;;-1.27;100.00
52735;BME280;38631;47.572;10.704;2023-02-13T04:33:07;94227.56;;;-1.51;100.00
52735;BME280;38631;47.572;10.704;2023-02-13T04:35:32;94226.13;;;-1.54;100.00
52735;BME280;38631;47.572;10.704;2023-02-13T04:37:58;94226.06;;;-1.39;100.00
52735;BME280;38631;47.572;10.704;2023-02-13T04:40:23;94217.13;;;-1.79;100.00
52735;BME280;38631;47.572;10.704;2023-02-13T04:42:48;94219.34;;;-1.76;100.00
52735;BME280;38631;47.572;10.704;2023-02-13T04:45:14;94220.66;;;-1.87;100.00
52735;BME280;38631;47.572;10.704;2023-02-13T04:47:39;94224.81;;;-1.92;100.00
52735;BME280;38631;47.572;10.704;2023-02-13T04:50:05;94226.84;;;-1.66;100.00
52735;BME280;38631;47.572;10.704;2023-02-13T04:52:31;94232.13;;;-1.60;100.00
52735;BME280;38631;47.572;10.704;2023-02-13T04:54:56;94225.91;;;-2.02;100.00
52735;BME280;38631;47.572;10.704;2023-02-13T04:57:21;94231.69;;;-1.85;100.00
52735;BME280;38631;47.572;10.704;2023-02-13T04:59:48;94232.44;;;-1.69;100.00
52735;BME280;38631;47.572;10.704;2023-02-13T05:02:13;94223.81;;;-1.91;100.00
52735;BME280;38631;47.572;10.704;2023-02-13T05:04:38;94222.69;;;-2.04;100.00
52735;BME280;38631;47.572;10.704;2023-02-13T05:07:04;94215.69;;;-1.82;100.00
52735;BME280;38631;47.572;10.704;2023-02-13T05:09:29;94222.31;;;-1.79;100.00
52735;BME280;38631;47.572;10.704;2023-02-13T05:11:55;94220.72;;;-1.80;100.00
52735;BME280;38631;47.572;10.704;2023-02-13T05:14:20;94221.13;;;-1.55;100.00
52735;BME280;38631;47.572;10.704;2023-02-13T05:16:46;94227.06;;;-1.61;100.00
52735;BME280;38631;47.572;10.704;2023-02-13T05:19:11;94226.84;;;-1.66;100.00
52735;BME280;38631;47.572;10.704;2023-02-13T05:21:37;94219.72;;;-1.79;100.00
52735;BME280;38631;47.572;10.704;2023-02-13T05:24:20;94222.19;;;-2.14;100.00
52735;BME280;38631;47.572;10.704;2023-02-13T05:26:46;94224.06;;;-1.86;100.00
52735;BME280;38631;47.572;10.704;2023-02-13T05:29:12;94222.06;;;-1.63;100.00
52735;BME280;38631;47.572;10.704;2023-02-13T05:31:44;94227.22;;;-1.69;100.00
52735;BME280;38631;47.572;10.704;2023-02-13T05:34:09;94214.69;;;-2.24;100.00
52735;BME280;38631;47.572;10.704;2023-02-13T05:36:35;94220.84;;;-2.10;100.00
52735;BME280;38631;47.572;10.704;2023-02-13T05:39:00;94208.50;;;-2.01;100.00
52735;BME280;38631;47.572;10.704;2023-02-13T05:41:25;94218.78;;;-2.14;100.00
52735;BME280;38631;47.572;10.704;2023-02-13T05:43:51;94213.09;;;-2.03;100.00
52735;BME280;38631;47.572;10.704;2023-02-13T05:46:16;94206.81;;;-2.09;100.00
52735;BME280;38631;47.572;10.704;2023-02-13T05:48:42;94206.94;;;-1.74;100.00
52735;BME280;38631;47.572;10.704;2023-02-13T05:51:07;94205.22;;;-1.67;100.00
52735;BME280;38631;47.572;10.704;2023-02-13T05:53:32;94206.28;;;-1.83;100.00
52735;BME280;38631;47.572;10.704;2023-02-13T05:56:03;94198.56;;;-1.69;100.00
52735;BME280;38631;47.572;10.704;2023-02-13T05:58:29;94200.88;;;-1.81;100.00
52735;BME280;38631;47.572;10.704;2023-02-13T06:00:56;94200.84;;;-1.88;100.00
52735;BME280;38631;47.572;10.704;2023-02-13T06:03:26;94193.88;;;-2.02;100.00
52735;BME280;38631;47.572;10.704;2023-02-13T06:05:53;94195.50;;;-2.01;100.00
52735;BME280;38631;47.572;10.704;2023-02-13T06:08:18;94199.34;;;-1.97;100.00
52735;BME280;38631;47.572;10.704;2023-02-13T06:10:45;94200.31;;;-2.20;100.00
52735;BME280;38631;47.572;10.704;2023-02-13T06:13:10;94196.94;;;-2.20;100.00
52735;BME280;38631;47.572;10.704;2023-02-13T06:15:36;94201.75;;;-2.17;100.00
52735;BME280;38631;47.572;10.704;2023-02-13T06:18:01;94201.00;;;-2.11;100.00
52735;BME280;38631;47.572;10.704;2023-02-13T06:20:27;94204.06;;;-2.07;100.00
52735;BME280;38631;47.572;10.704;2023-02-13T06:22:52;94202.81;;;-2.33;100.00
52735;BME280;38631;47.572;10.704;2023-02-13T06:25:18;94206.16;;;-2.18;100.00
52735;BME280;38631;47.572;10.704;2023-02-13T06:27:44;94210.56;;;-2.18;100.00
52735;BME280;38631;47.572;10.704;2023-02-13T06:30:10;94201.13;;;-2.19;100.00
52735;BME280;38631;47.572;10.704;2023-02-13T06:32:36;94195.78;;;-2.32;100.00
52735;BME280;38631;47.572;10.704;2023-02-13T06:35:01;94195.59;;;-2.52;100.00
52735;BME280;38631;47.572;10.704;2023-02-13T06:37:26;94196.66;;;-2.62;100.00
52735;BME280;38631;47.572;10.704;2023-02-13T06:39:52;94201.69;;;-2.24;100.00
52735;BME280;38631;47.572;10.704;2023-02-13T06:42:17;94203.53;;;-2.39;100.00
52735;BME280;38631;47.572;10.704;2023-02-13T06:44:43;94208.75;;;-2.54;100.00
52735;BME280;38631;47.572;10.704;2023-02-13T06:47:08;94196.72;;;-2.40;100.00
52735;BME280;38631;47.572;10.704;2023-02-13T06:49:34;94201.22;;;-2.49;100.00
52735;BME280;38631;47.572;10.704;2023-02-13T06:51:59;94209.00;;;-3.00;100.00
52735;BME280;38631;47.572;10.704;2023-02-13T06:54:24;94207.47;;;-2.94;100.00
52735;BME280;38631;47.572;10.704;2023-02-13T06:56:50;94203.00;;;-3.00;100.00
52735;BME280;38631;47.572;10.704;2023-02-13T06:59:15;94210.44;;;-2.83;100.00
52735;BME280;38631;47.572;10.704;2023-02-13T07:01:41;94209.91;;;-2.93;100.00
52735;BME280;38631;47.572;10.704;2023-02-13T07:04:06;94204.56;;;-2.55;100.00
52735;BME280;38631;47.572;10.704;2023-02-13T07:06:31;94217.50;;;-2.25;100.00
52735;BME280;38631;47.572;10.704;2023-02-13T07:08:57;94213.00;;;-2.53;100.00
52735;BME280;38631;47.572;10.704;2023-02-13T07:11:23;94206.78;;;-2.52;100.00
52735;BME280;38631;47.572;10.704;2023-02-13T07:13:49;94217.03;;;-2.65;100.00
52735;BME280;38631;47.572;10.704;2023-02-13T07:16:14;94212.50;;;-2.78;100.00
52735;BME280;38631;47.572;10.704;2023-02-13T07:18:40;94211.94;;;-2.73;100.00
52735;BME280;38631;47.572;10.704;2023-02-13T07:21:06;94224.91;;;-2.22;100.00
52735;BME280;38631;47.572;10.704;2023-02-13T07:23:32;94228.81;;;-2.33;100.00
52735;BME280;38631;47.572;10.704;2023-02-13T07:25:58;94232.72;;;-2.22;100.00
52735;BME280;38631;47.572;10.704;2023-02-13T07:28:24;94248.09;;;-2.06;100.00
52735;BME280;38631;47.572;10.704;2023-02-13T07:30:50;94243.22;;;-2.15;100.00
52735;BME280;38631;47.572;10.704;2023-02-13T07:33:15;94249.59;;;-2.18;100.00
52735;BME280;38631;47.572;10.704;2023-02-13T07:35:45;94253.75;;;-2.02;100.00
52735;BME280;38631;47.572;10.704;2023-02-13T07:38:11;94263.31;;;-1.88;100.00
52735;BME280;38631;47.572;10.704;2023-02-13T07:40:36;94272.22;;;-2.33;100.00
52735;BME280;38631;47.572;10.704;2023-02-13T07:43:01;94269.44;;;-2.32;100.00
52735;BME280;38631;47.572;10.704;2023-02-13T07:45:27;94267.47;;;-2.30;100.00
52735;BME280;38631;47.572;10.704;2023-02-13T07:47:54;94278.41;;;-2.34;100.00
52735;BME280;38631;47.572;10.704;2023-02-13T07:50:20;94276.06;;;-1.93;100.00
52735;BME280;38631;47.572;10.704;2023-02-13T07:52:55;94267.09;;;-1.90;100.00
52735;BME280;38631;47.572;10.704;2023-02-13T07:55:21;94274.91;;;-1.90;100.00
52735;BME280;38631;47.572;10.704;2023-02-13T07:57:47;94284.38;;;-1.61;100.00
52735;BME280;38631;47.572;10.704;2023-02-13T08:00:13;94282.16;;;-1.64;100.00
52735;BME280;38631;47.572;10.704;2023-02-13T08:02:39;94283.41;;;-1.60;100.00
52735;BME280;38631;47.572;10.704;2023-02-13T08:05:04;94283.47;;;-1.75;100.00
52735;BME280;38631;47.572;10.704;2023-02-13T08:07:30;94289.59;;;-1.83;100.00
52735;BME280;38631;47.572;10.704;2023-02-13T08:09:55;94282.09;;;-1.92;100.00
52735;BME280;38631;47.572;10.704;2023-02-13T08:12:39;94288.25;;;-1.93;100.00
52735;BME280;38631;47.572;10.704;2023-02-13T08:15:06;94283.97;;;-2.01;100.00
52735;BME280;38631;47.572;10.704;2023-02-13T08:17:31;94289.59;;;-1.61;100.00
52735;BME280;38631;47.572;10.704;2023-02-13T08:19:57;94291.94;;;-1.45;100.00
52735;BME280;38631;47.572;10.704;2023-02-13T08:22:22;94290.34;;;-1.67;100.00
52735;BME280;38631;47.572;10.704;2023-02-13T08:24:48;94290.84;;;-1.57;100.00
52735;BME280;38631;47.572;10.704;2023-02-13T08:27:14;94294.56;;;-1.45;100.00
52735;BME280;38631;47.572;10.704;2023-02-13T08:29:39;94286.41;;;-1.35;100.00
52735;BME280;38631;47.572;10.704;2023-02-13T08:32:05;94291.56;;;-1.42;100.00
52735;BME280;38631;47.572;10.704;2023-02-13T08:34:31;94291.81;;;-1.58;100.00
52735;BME280;38631;47.572;10.704;2023-02-13T08:36:56;94291.69;;;-1.50;100.00
52735;BME280;38631;47.572;10.704;2023-02-13T08:39:21;94302.16;;;-1.43;100.00
52735;BME280;38631;47.572;10.704;2023-02-13T08:41:47;94304.13;;;-1.24;100.00
52735;BME280;38631;47.572;10.704;2023-02-13T08:44:12;94304.69;;;-1.28;100.00
52735;BME280;38631;47.572;10.704;2023-02-13T08:46:37;94303.03;;;-1.15;100.00
52735;BME280;38631;47.572;10.704;2023-02-13T08:49:03;94305.78;;;-1.23;100.00
52735;BME280;38631;47.572;10.704;2023-02-13T08:51:28;94303.50;;;-1.26;100.00
52735;BME280;38631;47.572;10.704;2023-02-13T08:53:54;94300.97;;;-1.19;100.00
52735;BME280;38631;47.572;10.704;2023-02-13T08:56:19;94303.16;;;-1.23;100.00
52735;BME280;38631;47.572;10.704;2023-02-13T08:58:47;94301.84;;;-1.34;100.00
52735;BME280;38631;47.572;10.704;2023-02-13T09:01:12;94305.31;;;-1.26;100.00
52735;BME280;38631;47.572;10.704;2023-02-13T09:03:38;94303.81;;;-1.14;100.00
52735;BME280;38631;47.572;10.704;2023-02-13T09:06:03;94308.22;;;-1.15;100.00
52735;BME280;38631;47.572;10.704;2023-02-13T09:08:29;94300.34;;;-1.21;100.00
52735;BME280;38631;47.572;10.704;2023-02-13T09:10:57;94291.78;;;-1.15;100.00
52735;BME280;38631;47.572;10.704;2023-02-13T09:13:23;94294.63;;;-1.10;100.00
52735;BME280;38631;47.572;10.704;2023-02-13T09:15:48;94297.75;;;-0.93;100.00
52735;BME280;38631;47.572;10.704;2023-02-13T09:18:13;94294.19;;;-0.85;100.00
52735;BME280;38631;47.572;10.704;2023-02-13T09:20:39;94288.22;;;-0.79;100.00
52735;BME280;38631;47.572;10.704;2023-02-13T09:23:04;94296.56;;;-0.62;100.00
52735;BME280;38631;47.572;10.704;2023-02-13T09:25:29;94286.81;;;-0.82;100.00
52735;BME280;38631;47.572;10.704;2023-02-13T09:27:55;94285.78;;;-0.81;100.00
52735;BME280;38631;47.572;10.704;2023-02-13T09:30:21;94289.91;;;-0.65;100.00
52735;BME280;38631;47.572;10.704;2023-02-13T09:32:50;94291.59;;;-0.51;100.00
52735;BME280;38631;47.572;10.704;2023-02-13T09:35:17;94282.81;;;-0.36;100.00
52735;BME280;38631;47.572;10.704;2023-02-13T09:37:42;94282.25;;;-0.32;100.00
52735;BME280;38631;47.572;10.704;2023-02-13T09:40:23;94281.72;;;-0.14;100.00
52735;BME280;38631;47.572;10.704;2023-02-13T09:42:51;94273.09;;;-0.08;100.00
52735;BME280;38631;47.572;10.704;2023-02-13T09:45:19;94276.38;;;0.08;100.00
52735;BME280;38631;47.572;10.704;2023-02-13T09:47:45;94264.38;;;0.33;100.00
52735;BME280;38631;47.572;10.704;2023-02-13T09:50:18;94269.22;;;0.43;100.00
52735;BME280;38631;47.572;10.704;2023-02-13T09:52:45;94266.78;;;0.41;100.00
52735;BME280;38631;47.572;10.704;2023-02-13T09:55:23;94265.00;;;0.49;100.00
52735;BME280;38631;47.572;10.704;2023-02-13T10:00:47;94269.63;;;1.13;100.00
52735;BME280;38631;47.572;10.704;2023-02-13T10:03:42;94265.28;;;1.59;98.60
52735;BME280;38631;47.572;10.704;2023-02-13T10:06:23;94267.91;;;1.52;99.22
52735;BME280;38631;47.572;10.704;2023-02-13T10:09:12;94270.34;;;1.54;100.00
52735;BME280;38631;47.572;10.704;2023-02-13T10:12:07;94266.97;;;1.33;100.00
52735;BME280;38631;47.572;10.704;2023-02-13T10:17:21;94269.34;;;1.35;99.82
52735;BME280;38631;47.572;10.704;2023-02-13T10:19:54;94269.31;;;1.48;99.09
52735;BME280;38631;47.572;10.704;2023-02-13T10:22:32;94269.94;;;1.50;99.11
52735;BME280;38631;47.572;10.704;2023-02-13T10:25:16;94270.75;;;1.50;98.78
52735;BME280;38631;47.572;10.704;2023-02-13T10:27:48;94279.56;;;1.63;99.41
52735;BME280;38631;47.572;10.704;2023-02-13T10:30:45;94275.69;;;1.72;95.64
52735;BME280;38631;47.572;10.704;2023-02-13T10:33:11;94265.66;;;1.62;92.04
52735;BME280;38631;47.572;10.704;2023-02-13T10:38:34;94283.00;;;1.57;95.49
52735;BME280;38631;47.572;10.704;2023-02-13T10:46:42;94262.06;;;1.57;98.27
52735;BME280;38631;47.572;10.704;2023-02-13T10:52:12;94264.00;;;1.75;99.42
52735;BME280;38631;47.572;10.704;2023-02-13T10:58:14;94253.25;;;1.96;99.06
52735;BME280;38631;47.572;10.704;2023-02-13T11:01:01;94250.13;;;2.12;100.00
52735;BME280;38631;47.572;10.704;2023-02-13T11:03:30;94245.19;;;2.36;100.00
52735;BME280;38631;47.572;10.704;2023-02-13T11:05:57;94238.75;;;2.32;100.00
52735;BME280;38631;47.572;10.704;2023-02-13T11:08:31;94242.22;;;2.83;97.86
52735;BME280;38631;47.572;10.704;2023-02-13T11:10:57;94236.38;;;2.80;98.11
52735;BME280;38631;47.572;10.704;2023-02-13T11:13:25;94242.03;;;3.02;96.64
52735;BME280;38631;47.572;10.704;2023-02-13T11:16:07;94241.06;;;3.22;96.28
52735;BME280;38631;47.572;10.704;2023-02-13T11:18:40;94243.88;;;3.20;95.74
52735;BME280;38631;47.572;10.704;2023-02-13T11:21:22;94241.13;;;3.15;95.40
52735;BME280;38631;47.572;10.704;2023-02-13T11:23:58;94239.69;;;2.94;94.39
52735;BME280;38631;47.572;10.704;2023-02-13T11:26:33;94243.72;;;2.97;93.99
52735;BME280;38631;47.572;10.704;2023-02-13T11:29:03;94240.06;;;2.98;90.97
52735;BME280;38631;47.572;10.704;2023-02-13T11:31:33;94241.69;;;2.99;88.38
52735;BME280;38631;47.572;10.704;2023-02-13T11:33:59;94240.06;;;2.98;90.02
52735;BME280;38631;47.572;10.704;2023-02-13T11:36:42;94235.97;;;2.84;90.38
52735;BME280;38631;47.572;10.704;2023-02-13T11:39:18;94232.19;;;2.98;91.11
52735;BME280;38631;47.572;10.704;2023-02-13T11:41:45;94232.78;;;3.00;92.09
52735;BME280;38631;47.572;10.704;2023-02-13T11:44:29;94229.78;;;2.96;93.06
52735;BME280;38631;47.572;10.704;2023-02-13T11:46:57;94227.00;;;3.35;93.25
52735;BME280;38631;47.572;10.704;2023-02-13T11:49:25;94229.47;;;3.30;93.66
52735;BME280;38631;47.572;10.704;2023-02-13T11:51:57;94226.41;;;3.33;93.91
52735;BME280;38631;47.572;10.704;2023-02-13T11:54:32;94226.34;;;3.58;93.49
52735;BME280;38631;47.572;10.704;2023-02-13T11:57:01;94221.59;;;3.66;91.98
52735;BME280;38631;47.572;10.704;2023-02-13T11:59:31;94219.50;;;3.57;93.17
52735;BME280;38631;47.572;10.704;2023-02-13T12:03:00;94215.31;;;3.67;92.64
52735;BME280;38631;47.572;10.704;2023-02-13T12:05:22;94217.25;;;3.90;91.33
52735;BME280;38631;47.572;10.704;2023-02-13T12:07:48;94212.19;;;4.07;91.86
52735;BME280;38631;47.572;10.704;2023-02-13T12:10:29;94208.66;;;4.14;90.88
52735;BME280;38631;47.572;10.704;2023-02-13T12:12:58;94210.06;;;4.58;87.99
52735;BME280;38631;47.572;10.704;2023-02-13T12:15:29;94204.47;;;4.54;86.06
52735;BME280;38631;47.572;10.704;2023-02-13T12:18:11;94207.34;;;4.76;86.96
52735;BME280;38631;47.572;10.704;2023-02-13T12:23:20;94198.84;;;4.63;86.68
52735;BME280;38631;47.572;10.704;2023-02-13T12:26:00;94194.41;;;4.75;84.51
52735;BME280;38631;47.572;10.704;2023-02-13T12:28:44;94197.28;;;5.09;84.04
52735;BME280;38631;47.572;10.704;2023-02-13T12:47:38;94182.63;;;5.25;83.21
52735;BME280;38631;47.572;10.704;2023-02-13T12:53:11;94176.78;;;5.11;82.37
52735;BME280;38631;47.572;10.704;2023-02-13T13:03:57;94169.09;;;5.45;80.01
52735;BME280;38631;47.572;10.704;2023-02-13T13:12:33;94160.03;;;5.52;79.29
52735;BME280;38631;47.572;10.704;2023-02-13T13:15:25;94153.88;;;5.75;79.07
52735;BME280;38631;47.572;10.704;2023-02-13T13:18:18;94156.06;;;5.67;79.15
52735;BME280;38631;47.572;10.704;2023-02-13T13:24:04;94158.19;;;5.81;79.69
52735;BME280;38631;47.572;10.704;2023-02-13T13:29:11;94154.28;;;6.24;76.55
52735;BME280;38631;47.572;10.704;2023-02-13T13:31:39;94154.25;;;6.08;79.04
52735;BME280;38631;47.572;10.704;2023-02-13T13:34:12;94152.97;;;6.10;76.53
52735;BME280;38631;47.572;10.704;2023-02-13T13:36:50;94160.63;;;6.12;78.17
52735;BME280;38631;47.572;10.704;2023-02-13T13:42:51;94158.91;;;6.17;80.63
52735;BME280;38631;47.572;10.704;2023-02-13T13:45:30;94159.56;;;6.24;80.41
52735;BME280;38631;47.572;10.704;2023-02-13T13:48:25;94168.00;;;6.10;81.10
52735;BME280;38631;47.572;10.704;2023-02-13T13:50:54;94163.94;;;6.19;81.46
52735;BME280;38631;47.572;10.704;2023-02-13T13:53:21;94167.66;;;6.35;80.45
52735;BME280;38631;47.572;10.704;2023-02-13T14:03:35;94170.34;;;6.23;80.76
52735;BME280;38631;47.572;10.704;2023-02-13T14:06:04;94163.53;;;6.10;80.24
52735;BME280;38631;47.572;10.704;2023-02-13T14:11:03;94163.34;;;6.17;78.55
52735;BME280;38631;47.572;10.704;2023-02-13T14:13:34;94164.72;;;6.19;77.04
52735;BME280;38631;47.572;10.704;2023-02-13T14:16:01;94162.38;;;6.35;75.16
52735;BME280;38631;47.572;10.704;2023-02-13T14:18:27;94156.69;;;6.26;72.64
52735;BME280;38631;47.572;10.704;2023-02-13T14:21:01;94159.97;;;6.33;72.01
52735;BME280;38631;47.572;10.704;2023-02-13T14:23:43;94155.97;;;6.31;72.24
52735;BME280;38631;47.572;10.704;2023-02-13T14:32:14;94155.56;;;6.39;70.42
52735;BME280;38631;47.572;10.704;2023-02-13T14:34:38;94164.06;;;6.41;69.12
52735;BME280;38631;47.572;10.704;2023-02-13T14:37:15;94163.50;;;6.56;69.46
52735;BME280;38631;47.572;10.704;2023-02-13T14:40:47;94166.78;;;6.46;69.92
52735;BME280;38631;47.572;10.704;2023-02-13T14:43:00;94162.47;;;6.40;69.67
52735;BME280;38631;47.572;10.704;2023-02-13T14:45:32;94160.31;;;6.54;68.83
52735;BME280;38631;47.572;10.704;2023-02-13T14:48:10;94157.50;;;6.43;69.16
52735;BME280;38631;47.572;10.704;2023-02-13T14:50:49;94161.84;;;6.49;68.15